This is the latest recevied weather packets stored in our database for station/object WC4PEM-12. If no packets are shown the sender has not sent any weather packets the latest 10 day(s).
| Time | Temp. | Humidity | Pressure | Rain* | Wind** | Luminosity | Snow |
|---|---|---|---|---|---|---|---|
| 1778173369 | 31.11° C | 60% | 1015.5 hPa | 0 mm | - | - | - |
| 1778173156 | 31.11° C | 60% | 1015.6 hPa | 0 mm | - | - | - |
| 1778173069 | 31.11° C | 60% | 1015.6 hPa | 0 mm | - | - | - |
| 1778172769 | 30.56° C | 61% | 1015.4 hPa | 0 mm | - | - | - |
| 1778172512 | 30.56° C | 60% | 1015.4 hPa | 0 mm | - | - | - |
| 1778172469 | 30.56° C | 60% | 1015.4 hPa | 0 mm | - | - | - |
| 1778172301 | 30.56° C | 63% | 1016 hPa | 0 mm | - | - | - |
| 1778172220 | 31.11° C | 61% | 1015.6 hPa | 0 mm | - | - | - |
| 1778172169 | 31.11° C | 61% | 1015.6 hPa | 0 mm | - | - | - |
| 1778171869 | 30.56° C | 61% | 1015.7 hPa | 0 mm | - | - | - |
| 1778171569 | 30.56° C | 61% | 1015.7 hPa | 0 mm | - | - | - |
| 1778171401 | 31.11° C | 59% | 1015.7 hPa | 0 mm | - | - | - |
| 1778171269 | 31.11° C | 59% | 1015.7 hPa | 0 mm | - | - | - |
| 1778170969 | 30.56° C | 62% | 1016 hPa | 0 mm | - | - | - |
| 1778170669 | 30.56° C | 62% | 1015.9 hPa | 0 mm | - | - | - |
| 1778170556 | 30.56° C | 62% | 1016 hPa | 0 mm | - | - | - |
| 1778170369 | 30.56° C | 62% | 1016 hPa | 0 mm | - | - | - |
| 1778170070 | 30.56° C | 62% | 1016 hPa | 0 mm | - | - | - |
| 1778169960 | 30.56° C | 63% | 1016 hPa | 0 mm | - | - | - |
| 1778169769 | 30.56° C | 63% | 1016 hPa | 0 mm | - | - | - |
| 1778169655 | 30° C | 63% | 1016.1 hPa | 0 mm | - | - | - |
| 1778169469 | 30° C | 63% | 1016.1 hPa | 0 mm | - | - | - |
| 1778169307 | 30° C | 65% | 1016.1 hPa | 0 mm | - | - | - |
| 1778169285 | 30° C | 63% | 1016.2 hPa | 0 mm | - | - | - |
| 1778169170 | 30° C | 63% | 1016.2 hPa | 0 mm | - | - | - |
* Rain latest hour (hover to see other rain measurements)
** Current wind speed in m/s (hover to see current wind gust speed)